Time;durP1;ratioP1;P1;durP2;ratioP2;P2;SDS_P1;SDS_P2;PMS_P1;PMS_P2;Temp;Humidity;BMP_temperature;BMP_pressure;BME280_temperature;BME280_humidity;BME280_pressure;Samples;Min_cycle;Max_cycle;Signal;HPM_P1;HPM_P2
2023/12/07 00:00:32;;;;;;;18.10;16.30;;;;;;;;;;4974850;28;20268;-51
2023/12/07 00:02:59;;;;;;;17.50;15.73;;;;;;;;;;4974882;28;20992;-50
2023/12/07 00:05:25;;;;;;;20.77;17.00;;;;;;;;;;4975045;28;20290;-50
2023/12/07 00:07:51;;;;;;;19.60;17.57;;;;;;;;;;4974980;28;20509;-50
2023/12/07 00:10:17;;;;;;;20.43;16.67;;;;;;;;;;4974656;28;20442;-50
2023/12/07 00:12:43;;;;;;;20.43;17.20;;;;;;;;;;4974990;28;20442;-50
2023/12/07 00:15:10;;;;;;;18.83;16.93;;;;;;;;;;4974639;28;20554;-50
2023/12/07 00:17:36;;;;;;;19.63;17.53;;;;;;;;;;4974631;28;20783;-50
2023/12/07 00:20:07;;;;;;;20.50;16.67;;;;;;;;;;4974755;28;20737;-50
2023/12/07 00:22:33;;;;;;;23.67;18.20;;;;;;;;;;4974502;28;20516;-51
2023/12/07 00:24:59;;;;;;;19.57;17.00;;;;;;;;;;4974852;28;20493;-51
2023/12/07 00:27:25;;;;;;;19.60;17.50;;;;;;;;;;4974036;28;20486;-50
2023/12/07 00:29:51;;;;;;;19.03;16.63;;;;;;;;;;4974501;28;20929;-50
2023/12/07 00:32:17;;;;;;;18.33;16.53;;;;;;;;;;4977252;28;20204;-51
2023/12/07 00:34:43;;;;;;;18.17;16.27;;;;;;;;;;4994165;28;20617;-49
2023/12/07 00:37:10;;;;;;;19.57;16.87;;;;;;;;;;4993974;28;20975;-50
2023/12/07 00:39:36;;;;;;;17.07;15.20;;;;;;;;;;4991489;28;20928;-49
2023/12/07 00:42:03;;;;;;;18.03;16.13;;;;;;;;;;4992225;28;20472;-50
2023/12/07 00:44:29;;;;;;;18.53;16.07;;;;;;;;;;4993554;28;20202;-49
2023/12/07 00:46:55;;;;;;;18.83;16.60;;;;;;;;;;4993788;28;20485;-50
2023/12/07 00:49:21;;;;;;;19.30;17.17;;;;;;;;;;4993677;28;20221;-49
2023/12/07 00:51:47;;;;;;;16.87;15.13;;;;;;;;;;4993672;28;20277;-50
2023/12/07 00:54:14;;;;;;;16.30;14.60;;;;;;;;;;4993609;28;20579;-49
2023/12/07 00:56:40;;;;;;;16.77;14.93;;;;;;;;;;4993606;28;20445;-49
2023/12/07 00:59:06;;;;;;;16.00;14.33;;;;;;;;;;4993748;28;20453;-50
2023/12/07 01:01:32;;;;;;;16.10;14.40;;;;;;;;;;4993366;28;20214;-49
2023/12/07 01:03:58;;;;;;;17.07;15.30;;;;;;;;;;4993429;28;20496;-51
2023/12/07 01:06:24;;;;;;;16.90;15.10;;;;;;;;;;4993314;28;20489;-52
2023/12/07 01:08:50;;;;;;;16.33;14.70;;;;;;;;;;4993416;28;20202;-50
2023/12/07 01:11:18;;;;;;;17.77;15.67;;;;;;;;;;4993185;28;20739;-51
2023/12/07 01:13:43;;;;;;;17.33;15.57;;;;;;;;;;4993317;28;20210;-48
2023/12/07 01:16:09;;;;;;;17.07;14.57;;;;;;;;;;4993279;28;20445;-50
2023/12/07 01:18:35;;;;;;;16.43;14.73;;;;;;;;;;4993088;28;20237;-50
2023/12/07 01:21:01;;;;;;;15.83;14.17;;;;;;;;;;4993043;28;20572;-49
2023/12/07 01:23:27;;;;;;;16.40;14.60;;;;;;;;;;4992886;28;20453;-49
2023/12/07 01:25:53;;;;;;;17.13;14.90;;;;;;;;;;4993105;28;20347;-49
2023/12/07 01:28:21;;;;;;;19.97;15.57;;;;;;;;;;4992693;28;20712;-50
2023/12/07 01:30:47;;;;;;;17.03;15.23;;;;;;;;;;4992817;28;20844;-50
2023/12/07 01:33:13;;;;;;;17.60;15.80;;;;;;;;;;4992874;28;20441;-49
2023/12/07 01:35:39;;;;;;;17.77;15.97;;;;;;;;;;4992794;28;20614;-50
2023/12/07 01:38:04;;;;;;;22.40;17.23;;;;;;;;;;4992734;28;20289;-49
2023/12/07 01:40:30;;;;;;;19.43;16.37;;;;;;;;;;4992157;28;20198;-49
2023/12/07 01:42:56;;;;;;;18.17;16.27;;;;;;;;;;4992881;28;20665;-50
2023/12/07 01:45:24;;;;;;;19.63;16.57;;;;;;;;;;4992505;28;20253;-49
2023/12/07 01:47:50;;;;;;;17.17;15.23;;;;;;;;;;4992615;28;20592;-49
2023/12/07 01:50:16;;;;;;;18.37;16.40;;;;;;;;;;4992558;28;20441;-50
2023/12/07 01:52:45;;;;;;;18.97;16.13;;;;;;;;;;4992775;28;20442;-49
2023/12/07 01:55:11;;;;;;;18.40;16.40;;;;;;;;;;4992611;28;20444;-49
2023/12/07 01:57:37;;;;;;;18.57;16.13;;;;;;;;;;4992431;28;20434;-49
2023/12/07 02:00:07;;;;;;;18.17;16.03;;;;;;;;;;4992422;28;20439;-49
2023/12/07 02:02:34;;;;;;;18.17;16.37;;;;;;;;;;4992251;28;20463;-50
2023/12/07 02:05:00;;;;;;;18.23;16.43;;;;;;;;;;4992331;28;20468;-49
2023/12/07 02:07:27;;;;;;;17.17;15.47;;;;;;;;;;4992227;28;20477;-49
2023/12/07 02:09:53;;;;;;;17.93;15.77;;;;;;;;;;4992261;28;20253;-50
2023/12/07 02:12:19;;;;;;;17.53;15.67;;;;;;;;;;4992259;28;20441;-50
2023/12/07 02:14:45;;;;;;;17.17;15.47;;;;;;;;;;4992263;28;20217;-50
2023/12/07 02:17:15;;;;;;;17.33;15.43;;;;;;;;;;4992441;28;20461;-50
2023/12/07 02:19:49;;;;;;;16.77;15.07;;;;;;;;;;4992359;28;20866;-50
2023/12/07 02:22:17;;;;;;;17.00;15.17;;;;;;;;;;4991983;28;20466;-50
2023/12/07 02:24:48;;;;;;;17.23;15.43;;;;;;;;;;4992195;28;20496;-50
2023/12/07 02:27:15;;;;;;;16.67;14.97;;;;;;;;;;4991791;28;20825;-49
2023/12/07 02:29:42;;;;;;;17.20;15.40;;;;;;;;;;4991923;28;20441;-50
2023/12/07 02:32:09;;;;;;;17.87;15.97;;;;;;;;;;4992199;28;20948;-49
2023/12/07 02:34:35;;;;;;;16.70;15.00;;;;;;;;;;4991818;28;20732;-49
2023/12/07 02:37:01;;;;;;;17.13;15.40;;;;;;;;;;4991904;28;20441;-49
2023/12/07 02:39:28;;;;;;;17.97;16.10;;;;;;;;;;4991950;28;20446;-50
2023/12/07 02:41:54;;;;;;;18.47;16.47;;;;;;;;;;4992105;28;20445;-49
2023/12/07 02:44:21;;;;;;;17.60;15.80;;;;;;;;;;4991795;28;20445;-49
2023/12/07 02:46:48;;;;;;;20.00;17.17;;;;;;;;;;4991867;28;20481;-50
2023/12/07 02:49:14;;;;;;;18.90;16.13;;;;;;;;;;4991867;28;20477;-50
2023/12/07 02:51:40;;;;;;;18.70;16.63;;;;;;;;;;4991918;28;20473;-50
2023/12/07 02:54:06;;;;;;;20.57;17.00;;;;;;;;;;4995854;28;20213;-49
2023/12/07 02:56:32;;;;;;;21.33;19.03;;;;;;;;;;4995697;28;20198;-49
2023/12/07 02:58:58;;;;;;;20.87;18.10;;;;;;;;;;4995875;28;20523;-50
2023/12/07 03:01:25;;;;;;;19.90;17.80;;;;;;;;;;4995834;28;20204;-49
2023/12/07 03:03:51;;;;;;;23.57;18.57;;;;;;;;;;4990695;28;20210;-50
2023/12/07 03:06:19;;;;;;;20.07;17.50;;;;;;;;;;4985417;28;20536;-49
2023/12/07 03:08:45;;;;;;;19.63;17.60;;;;;;;;;;4987090;28;20261;-49
2023/12/07 03:11:11;;;;;;;20.13;17.90;;;;;;;;;;4985566;28;20445;-49
2023/12/07 03:13:38;;;;;;;22.03;17.80;;;;;;;;;;4983653;28;20301;-49
2023/12/07 03:16:07;;;;;;;20.70;18.50;;;;;;;;;;4983770;28;20224;-49
2023/12/07 03:18:34;;;;;;;20.10;17.43;;;;;;;;;;4985199;28;20875;-49
2023/12/07 03:21:02;;;;;;;18.37;16.30;;;;;;;;;;4986824;28;20944;-50
2023/12/07 03:23:28;;;;;;;19.10;17.10;;;;;;;;;;4983349;28;20548;-49
2023/12/07 03:25:55;;;;;;;18.80;16.63;;;;;;;;;;4988707;28;20509;-49
2023/12/07 03:28:21;;;;;;;17.70;15.83;;;;;;;;;;4983487;28;20577;-49
2023/12/07 03:30:47;;;;;;;18.33;15.87;;;;;;;;;;4987347;28;20444;-49
2023/12/07 03:33:13;;;;;;;19.60;17.20;;;;;;;;;;4988840;28;20719;-49
2023/12/07 03:35:41;;;;;;;19.53;16.87;;;;;;;;;;4982442;28;20806;-49
2023/12/07 03:41:11;;;;;;;19.10;16.03;;;;;;;;;;4980569;28;20894;-49
2023/12/07 03:43:37;;;;;;;20.33;16.23;;;;;;;;;;4983401;28;20441;-50
2023/12/07 03:46:04;;;;;;;18.73;16.73;;;;;;;;;;4983877;28;20444;-49
2023/12/07 03:48:30;;;;;;;19.63;17.53;;;;;;;;;;4985132;28;20619;-49
2023/12/07 03:50:58;;;;;;;18.73;16.33;;;;;;;;;;4982121;28;20490;-49
2023/12/07 03:53:24;;;;;;;20.03;17.70;;;;;;;;;;4981752;28;20456;-49
2023/12/07 03:55:50;;;;;;;19.53;17.20;;;;;;;;;;4983407;28;20445;-49
2023/12/07 03:58:16;;;;;;;19.03;16.93;;;;;;;;;;4983213;28;20217;-49
2023/12/07 04:00:42;;;;;;;18.53;16.60;;;;;;;;;;4985297;28;20209;-49
2023/12/07 04:03:08;;;;;;;19.93;17.23;;;;;;;;;;4979670;28;20608;-49
2023/12/07 04:05:34;;;;;;;20.57;18.20;;;;;;;;;;4984992;28;20186;-49
2023/12/07 04:08:01;;;;;;;19.10;16.63;;;;;;;;;;4984732;28;20634;-50
2023/12/07 04:10:27;;;;;;;20.70;17.37;;;;;;;;;;4983768;28;20200;-49
2023/12/07 04:12:53;;;;;;;20.93;17.17;;;;;;;;;;4979919;28;20486;-49
2023/12/07 04:15:19;;;;;;;17.93;16.03;;;;;;;;;;4984754;28;20803;-49
2023/12/07 04:17:45;;;;;;;20.00;17.07;;;;;;;;;;4984749;28;20684;-49
2023/12/07 04:20:12;;;;;;;20.90;17.80;;;;;;;;;;4979944;28;20443;-49
2023/12/07 04:22:39;;;;;;;21.57;17.53;;;;;;;;;;4982994;28;20461;-49
2023/12/07 04:25:07;;;;;;;21.90;17.90;;;;;;;;;;4981374;28;20442;-49
2023/12/07 04:27:33;;;;;;;19.87;17.53;;;;;;;;;;4946701;28;1009397;-49
2023/12/07 04:29:59;;;;;;;20.20;17.13;;;;;;;;;;4982434;28;20680;-49
2023/12/07 04:32:25;;;;;;;21.37;18.33;;;;;;;;;;4985720;28;20441;-49
2023/12/07 04:34:51;;;;;;;24.40;19.33;;;;;;;;;;4983836;28;20261;-49
2023/12/07 04:37:18;;;;;;;22.83;18.53;;;;;;;;;;4983936;28;20511;-49
2023/12/07 04:39:44;;;;;;;23.03;19.57;;;;;;;;;;4985506;28;20951;-49
2023/12/07 04:42:11;;;;;;;26.27;18.80;;;;;;;;;;4982160;28;20453;-49
2023/12/07 04:44:37;;;;;;;23.70;18.63;;;;;;;;;;4983707;28;20661;-49
2023/12/07 04:47:03;;;;;;;26.90;22.10;;;;;;;;;;4982006;28;20480;-49
2023/12/07 04:49:29;;;;;;;24.90;19.13;;;;;;;;;;4981794;28;20197;-49
2023/12/07 04:51:55;;;;;;;25.83;20.17;;;;;;;;;;4982021;28;20516;-50
2023/12/07 04:54:21;;;;;;;23.20;19.97;;;;;;;;;;4979974;28;20504;-49
2023/12/07 04:56:47;;;;;;;26.20;20.73;;;;;;;;;;4985206;28;20234;-49
2023/12/07 04:59:14;;;;;;;24.20;18.60;;;;;;;;;;4985044;28;20687;-49
2023/12/07 05:01:40;;;;;;;22.53;19.47;;;;;;;;;;4981854;28;20445;-49
2023/12/07 05:04:06;;;;;;;27.40;18.70;;;;;;;;;;4979908;28;20442;-49
2023/12/07 05:06:32;;;;;;;20.33;17.33;;;;;;;;;;4983152;28;20206;-49
2023/12/07 05:08:58;;;;;;;21.80;17.97;;;;;;;;;;4983301;28;20183;-49
2023/12/07 05:11:24;;;;;;;20.87;17.40;;;;;;;;;;4979796;28;20218;-49
2023/12/07 05:13:51;;;;;;;20.73;17.47;;;;;;;;;;4981417;28;20453;-49
2023/12/07 05:16:18;;;;;;;20.53;17.67;;;;;;;;;;4990811;28;20835;-49
2023/12/07 05:18:44;;;;;;;20.60;17.23;;;;;;;;;;4993023;28;20854;-49
2023/12/07 05:21:11;;;;;;;19.77;17.67;;;;;;;;;;4993127;28;20450;-49
2023/12/07 05:23:37;;;;;;;19.40;17.27;;;;;;;;;;4993036;28;20297;-49
2023/12/07 05:26:03;;;;;;;22.37;18.07;;;;;;;;;;4993041;28;20492;-49
2023/12/07 05:28:29;;;;;;;23.07;18.07;;;;;;;;;;4997450;28;20489;-49
2023/12/07 05:30:57;;;;;;;21.87;18.43;;;;;;;;;;4993822;28;20467;-50
2023/12/07 05:33:24;;;;;;;22.17;17.70;;;;;;;;;;4992851;28;20966;-49
2023/12/07 05:35:50;;;;;;;21.10;17.53;;;;;;;;;;4992820;28;20434;-50
2023/12/07 05:38:16;;;;;;;20.83;18.33;;;;;;;;;;4992835;28;20520;-50
2023/12/07 05:40:42;;;;;;;21.17;17.17;;;;;;;;;;4993029;28;20208;-49
2023/12/07 05:43:08;;;;;;;19.20;17.10;;;;;;;;;;4992854;28;20292;-49
2023/12/07 05:45:34;;;;;;;20.60;17.27;;;;;;;;;;4992767;28;20202;-49
2023/12/07 05:48:00;;;;;;;19.83;16.67;;;;;;;;;;4992630;28;20245;-50
2023/12/07 05:50:28;;;;;;;18.83;16.40;;;;;;;;;;4992461;28;20664;-50
2023/12/07 05:52:55;;;;;;;21.57;16.43;;;;;;;;;;4992710;28;20456;-49
2023/12/07 05:55:21;;;;;;;20.67;17.47;;;;;;;;;;4992474;28;20441;-49
2023/12/07 05:57:47;;;;;;;19.80;17.70;;;;;;;;;;4992494;28;20480;-49
2023/12/07 06:00:16;;;;;;;19.70;17.60;;;;;;;;;;4992668;28;20241;-49
2023/12/07 06:02:42;;;;;;;21.07;17.20;;;;;;;;;;4992594;28;20198;-49
2023/12/07 06:05:08;;;;;;;21.80;17.90;;;;;;;;;;4985154;28;20508;-49
2023/12/07 06:07:35;;;;;;;23.07;19.10;;;;;;;;;;4980276;28;20480;-49
2023/12/07 06:10:01;;;;;;;22.23;18.67;;;;;;;;;;4982033;28;20429;-49
2023/12/07 06:12:27;;;;;;;22.93;18.87;;;;;;;;;;4980447;28;21057;-48
2023/12/07 06:14:54;;;;;;;21.27;17.93;;;;;;;;;;4980080;28;20207;-50
2023/12/07 06:17:21;;;;;;;24.40;18.77;;;;;;;;;;4980148;28;20199;-50
2023/12/07 06:19:47;;;;;;;31.13;23.53;;;;;;;;;;4978402;28;20460;-49
2023/12/07 06:22:13;;;;;;;31.73;24.00;;;;;;;;;;4981592;28;20894;-49
2023/12/07 06:24:41;;;;;;;30.17;23.73;;;;;;;;;;4980092;28;20485;-49
2023/12/07 06:27:07;;;;;;;26.40;20.80;;;;;;;;;;4981009;28;20485;-49
2023/12/07 06:29:33;;;;;;;22.77;19.77;;;;;;;;;;4980060;28;20468;-49
2023/12/07 06:32:00;;;;;;;23.30;19.23;;;;;;;;;;4980400;28;20206;-48
2023/12/07 06:34:27;;;;;;;23.00;19.40;;;;;;;;;;4979098;28;20437;-49
2023/12/07 06:36:53;;;;;;;22.13;16.87;;;;;;;;;;4980169;28;20793;-49
2023/12/07 06:39:19;;;;;;;22.27;18.50;;;;;;;;;;4979939;28;20801;-49
2023/12/07 06:41:47;;;;;;;20.10;17.53;;;;;;;;;;4978225;28;20885;-49
2023/12/07 06:44:13;;;;;;;21.67;18.07;;;;;;;;;;4979772;28;20442;-49
2023/12/07 06:46:39;;;;;;;23.20;19.17;;;;;;;;;;4979905;28;20438;-49
2023/12/07 06:49:05;;;;;;;23.27;18.90;;;;;;;;;;4978206;28;20209;-49
2023/12/07 06:51:31;;;;;;;23.77;19.33;;;;;;;;;;4978114;28;20445;-49
2023/12/07 06:53:57;;;;;;;23.73;18.83;;;;;;;;;;4979915;28;20512;-49
2023/12/07 06:56:23;;;;;;;26.37;20.60;;;;;;;;;;4979836;28;20509;-49
2023/12/07 06:58:51;;;;;;;22.60;18.53;;;;;;;;;;4981578;28;20684;-49
2023/12/07 07:01:17;;;;;;;22.70;18.97;;;;;;;;;;4979758;28;20202;-49
2023/12/07 07:03:43;;;;;;;22.87;19.30;;;;;;;;;;4978249;28;20908;-49
2023/12/07 07:06:10;;;;;;;23.77;18.40;;;;;;;;;;4979809;28;20434;-49
2023/12/07 07:08:36;;;;;;;22.57;18.97;;;;;;;;;;4978059;28;20816;-49
2023/12/07 07:11:11;;;;;;;23.17;18.80;;;;;;;;;;4978155;28;20968;-48
2023/12/07 07:13:37;;;;;;;21.73;17.70;;;;;;;;;;4979866;28;20449;-48
2023/12/07 07:16:04;;;;;;;21.87;18.63;;;;;;;;;;4978090;28;20668;-48
2023/12/07 07:18:30;;;;;;;24.60;19.40;;;;;;;;;;4981316;28;20262;-49
2023/12/07 07:20:56;;;;;;;24.33;19.13;;;;;;;;;;4979102;28;20426;-49
2023/12/07 07:23:23;;;;;;;23.53;19.43;;;;;;;;;;4979521;28;20787;-49
2023/12/07 07:25:49;;;;;;;25.83;20.27;;;;;;;;;;4981441;28;20281;-49
2023/12/07 07:28:15;;;;;;;24.17;19.83;;;;;;;;;;4978065;28;20616;-49
2023/12/07 07:30:41;;;;;;;23.40;18.13;;;;;;;;;;4978032;28;20328;-49
2023/12/07 07:33:08;;;;;;;24.60;18.10;;;;;;;;;;4979448;28;21007;-48
2023/12/07 07:35:34;;;;;;;22.57;18.33;;;;;;;;;;4981040;28;20212;-48
2023/12/07 07:38:00;;;;;;;23.07;18.53;;;;;;;;;;4979369;28;20442;-49
2023/12/07 07:40:26;;;;;;;23.20;17.97;;;;;;;;;;4983014;28;20272;-49
2023/12/07 07:42:52;;;;;;;22.63;18.10;;;;;;;;;;4983043;28;20202;-49
2023/12/07 07:45:18;;;;;;;19.50;17.33;;;;;;;;;;4984506;28;20445;-48
2023/12/07 07:47:44;;;;;;;24.37;19.50;;;;;;;;;;4984236;28;20551;-48
2023/12/07 07:50:12;;;;;;;25.20;19.17;;;;;;;;;;4982796;28;20433;-49
2023/12/07 07:52:40;;;;;;;23.00;17.70;;;;;;;;;;4986534;28;20471;-48
2023/12/07 07:55:07;;;;;;;21.77;16.80;;;;;;;;;;4984644;28;20437;-48
2023/12/07 07:57:33;;;;;;;22.43;18.30;;;;;;;;;;4982955;28;20442;-49
2023/12/07 07:59:59;;;;;;;23.77;18.27;;;;;;;;;;4982801;28;20943;-49
2023/12/07 08:02:25;;;;;;;20.17;17.60;;;;;;;;;;4982758;28;21006;-49
2023/12/07 08:04:51;;;;;;;22.43;17.97;;;;;;;;;;4984284;28;20444;-49
2023/12/07 08:07:18;;;;;;;22.43;16.97;;;;;;;;;;4984139;28;20477;-49
2023/12/07 08:09:44;;;;;;;21.10;18.23;;;;;;;;;;4982650;28;20441;-48
2023/12/07 08:12:10;;;;;;;20.90;17.40;;;;;;;;;;4981073;28;20456;-49
2023/12/07 08:14:37;;;;;;;24.93;18.20;;;;;;;;;;4982553;28;20503;-49
2023/12/07 08:17:03;;;;;;;23.23;18.10;;;;;;;;;;4982451;28;20932;-48
2023/12/07 08:19:29;;;;;;;21.17;16.63;;;;;;;;;;4984024;28;20973;-49
2023/12/07 08:21:55;;;;;;;21.57;17.30;;;;;;;;;;4982302;28;20536;-48
2023/12/07 08:24:22;;;;;;;21.00;17.27;;;;;;;;;;4985649;28;20206;-48
2023/12/07 08:26:48;;;;;;;19.40;17.03;;;;;;;;;;4985371;28;20658;-49
2023/12/07 08:29:14;;;;;;;21.63;16.37;;;;;;;;;;4982184;28;20811;-48
2023/12/07 08:31:40;;;;;;;18.90;16.30;;;;;;;;;;4982261;28;20696;-49
2023/12/07 08:34:07;;;;;;;19.30;17.07;;;;;;;;;;4982125;28;20691;-48
2023/12/07 08:36:33;;;;;;;18.50;15.53;;;;;;;;;;4981983;28;20241;-49
2023/12/07 08:38:59;;;;;;;20.60;17.13;;;;;;;;;;4981994;28;20464;-49
2023/12/07 08:41:26;;;;;;;19.17;16.80;;;;;;;;;;4981998;28;20661;-49
2023/12/07 08:43:52;;;;;;;22.03;16.47;;;;;;;;;;4985190;28;20573;-49
2023/12/07 08:46:18;;;;;;;18.70;15.47;;;;;;;;;;4981822;28;20441;-49
2023/12/07 08:48:44;;;;;;;18.80;15.63;;;;;;;;;;4981537;28;20253;-49
2023/12/07 08:51:10;;;;;;;23.70;17.47;;;;;;;;;;4980726;28;20673;-48
2023/12/07 08:53:36;;;;;;;22.13;16.50;;;;;;;;;;4983316;28;20652;-48
2023/12/07 08:56:02;;;;;;;19.43;15.27;;;;;;;;;;4983610;28;20449;-49
2023/12/07 08:58:30;;;;;;;21.93;15.83;;;;;;;;;;4983394;28;20516;-49
2023/12/07 09:00:56;;;;;;;19.27;15.23;;;;;;;;;;4981997;28;20446;-48
2023/12/07 09:03:27;;;;;;;18.40;15.37;;;;;;;;;;4981705;28;20561;-49
2023/12/07 09:05:53;;;;;;;20.30;15.20;;;;;;;;;;4983371;28;20940;-49
2023/12/07 09:08:19;;;;;;;17.83;14.90;;;;;;;;;;4979724;28;20535;-49
2023/12/07 09:10:45;;;;;;;18.20;15.00;;;;;;;;;;4981726;28;20217;-49
2023/12/07 09:13:11;;;;;;;19.23;15.77;;;;;;;;;;4980354;28;20614;-48
2023/12/07 09:15:38;;;;;;;26.83;16.70;;;;;;;;;;4981631;28;20272;-48
2023/12/07 09:18:04;;;;;;;16.43;14.67;;;;;;;;;;4981136;28;20194;-48
2023/12/07 09:20:30;;;;;;;18.80;14.90;;;;;;;;;;4982904;28;20912;-49
2023/12/07 09:22:57;;;;;;;20.63;13.93;;;;;;;;;;4979459;28;20469;-48
2023/12/07 09:25:23;;;;;;;17.30;14.80;;;;;;;;;;4983175;28;20209;-49
2023/12/07 09:27:51;;;;;;;16.23;14.53;;;;;;;;;;4980917;28;21006;-48
2023/12/07 09:30:17;;;;;;;19.23;15.60;;;;;;;;;;4981210;28;20437;-48
2023/12/07 09:32:44;;;;;;;19.03;16.20;;;;;;;;;;4979485;28;20525;-48
2023/12/07 09:35:18;;;;;;;18.23;14.83;;;;;;;;;;4982983;28;20199;-48
2023/12/07 09:37:45;;;;;;;16.37;14.43;;;;;;;;;;4979643;28;20800;-48
2023/12/07 09:40:15;;;;;;;20.30;16.03;;;;;;;;;;4982873;28;20473;-47
2023/12/07 09:42:42;;;;;;;19.80;16.40;;;;;;;;;;4981317;28;20449;-48
2023/12/07 09:45:09;;;;;;;20.10;16.40;;;;;;;;;;4980933;28;20804;-48
2023/12/07 09:47:37;;;;;;;20.60;16.03;;;;;;;;;;4982414;28;20604;-49
2023/12/07 09:50:05;;;;;;;23.57;17.10;;;;;;;;;;4982489;28;20445;-49
2023/12/07 09:52:31;;;;;;;19.90;16.10;;;;;;;;;;4982213;28;20449;-49
2023/12/07 09:54:57;;;;;;;19.33;17.03;;;;;;;;;;4980816;28;21011;-48
2023/12/07 09:57:24;;;;;;;20.30;16.60;;;;;;;;;;4982472;28;20529;-49
2023/12/07 09:59:50;;;;;;;22.10;16.93;;;;;;;;;;4975287;28;20242;-50
2023/12/07 10:02:16;;;;;;;18.43;15.67;;;;;;;;;;4972458;28;20940;-50
2023/12/07 10:04:42;;;;;;;19.93;16.37;;;;;;;;;;4972869;28;20254;-50
2023/12/07 10:07:09;;;;;;;19.90;16.47;;;;;;;;;;4972675;28;20818;-50
2023/12/07 10:09:35;;;;;;;21.90;18.50;;;;;;;;;;4970724;28;20234;-50
2023/12/07 10:12:03;;;;;;;21.20;17.07;;;;;;;;;;4971152;28;20485;-49
2023/12/07 10:14:29;;;;;;;24.17;18.00;;;;;;;;;;4973167;28;20517;-49
2023/12/07 10:16:56;;;;;;;24.63;17.47;;;;;;;;;;4973047;28;20438;-49
2023/12/07 10:19:22;;;;;;;22.40;18.37;;;;;;;;;;4973084;28;20439;-49
2023/12/07 10:21:50;;;;;;;24.17;18.93;;;;;;;;;;4972919;28;20462;-49
2023/12/07 10:24:17;;;;;;;24.30;18.17;;;;;;;;;;4973031;28;20435;-50
2023/12/07 10:26:43;;;;;;;22.57;18.37;;;;;;;;;;4972781;28;20473;-49
2023/12/07 10:29:10;;;;;;;24.20;19.67;;;;;;;;;;4971470;28;20482;-50
2023/12/07 10:31:36;;;;;;;26.77;19.03;;;;;;;;;;4972743;28;20480;-49
2023/12/07 10:34:03;;;;;;;24.37;19.87;;;;;;;;;;4971173;28;20813;-50
2023/12/07 10:36:30;;;;;;;23.20;19.67;;;;;;;;;;4969251;28;20438;-50
2023/12/07 10:38:56;;;;;;;24.90;19.67;;;;;;;;;;4971197;28;20929;-49
2023/12/07 10:41:24;;;;;;;25.20;20.93;;;;;;;;;;4965834;28;20467;-50
2023/12/07 10:43:52;;;;;;;24.07;19.53;;;;;;;;;;4969559;28;20677;-50
2023/12/07 10:46:20;;;;;;;26.60;20.13;;;;;;;;;;4969258;28;20439;-50
2023/12/07 10:48:49;;;;;;;27.53;21.40;;;;;;;;;;4969198;28;20484;-49
2023/12/07 10:51:19;;;;;;;25.40;20.23;;;;;;;;;;4967440;28;20545;-50
2023/12/07 10:53:46;;;;;;;25.60;20.80;;;;;;;;;;4962159;28;20806;-50
2023/12/07 10:56:14;;;;;;;26.77;21.93;;;;;;;;;;4964053;28;20558;-50
2023/12/07 10:58:42;;;;;;;26.70;20.80;;;;;;;;;;4964278;28;20434;-50
2023/12/07 11:01:11;;;;;;;28.60;22.23;;;;;;;;;;4968952;28;20459;-50
2023/12/07 11:03:38;;;;;;;27.37;22.50;;;;;;;;;;4961732;28;20439;-50
2023/12/07 11:06:05;;;;;;;34.80;25.00;;;;;;;;;;4963569;28;20967;-50
2023/12/07 11:08:37;;;;;;;29.80;22.87;;;;;;;;;;4963481;28;20506;-50
2023/12/07 11:11:05;;;;;;;27.47;22.07;;;;;;;;;;4967013;28;20450;-50
2023/12/07 11:13:32;;;;;;;26.60;21.57;;;;;;;;;;4964815;28;20929;-50
2023/12/07 11:16:00;;;;;;;28.03;22.63;;;;;;;;;;4965826;28;20522;-50
2023/12/07 11:18:26;;;;;;;30.20;23.93;;;;;;;;;;4969111;28;20466;-51
2023/12/07 11:20:53;;;;;;;27.27;22.57;;;;;;;;;;4965735;28;20799;-50
2023/12/07 11:23:19;;;;;;;30.67;23.67;;;;;;;;;;4965673;28;20996;-50
2023/12/07 11:25:45;;;;;;;32.57;24.03;;;;;;;;;;4968885;28;20446;-50
2023/12/07 11:28:12;;;;;;;35.17;25.43;;;;;;;;;;4968831;28;20474;-50
2023/12/07 11:30:40;;;;;;;34.73;26.13;;;;;;;;;;4963802;28;20454;-50
2023/12/07 11:33:07;;;;;;;32.50;24.30;;;;;;;;;;4967236;28;20454;-51
2023/12/07 11:35:33;;;;;;;33.97;25.50;;;;;;;;;;4963603;28;20469;-51
2023/12/07 11:38:04;;;;;;;31.50;23.60;;;;;;;;;;4967074;28;20442;-51
2023/12/07 11:40:32;;;;;;;26.43;20.97;;;;;;;;;;4968622;28;20453;-51
2023/12/07 11:42:59;;;;;;;28.23;23.47;;;;;;;;;;4965389;28;20445;-51
2023/12/07 11:45:37;;;;;;;26.30;20.67;;;;;;;;;;4967340;28;20445;-51
2023/12/07 11:48:11;;;;;;;27.37;22.13;;;;;;;;;;4965324;28;20491;-51
2023/12/07 11:50:37;;;;;;;27.00;21.13;;;;;;;;;;4967104;28;20524;-51
2023/12/07 11:53:03;;;;;;;26.53;22.10;;;;;;;;;;4965432;28;20464;-51
2023/12/07 11:55:32;;;;;;;27.77;21.80;;;;;;;;;;4962316;28;20437;-51
2023/12/07 11:57:58;;;;;;;29.43;21.50;;;;;;;;;;4962074;28;20800;-51
2023/12/07 12:00:25;;;;;;;30.00;22.20;;;;;;;;;;4972079;28;20554;-52
2023/12/07 12:02:51;;;;;;;28.37;22.00;;;;;;;;;;4965302;28;20617;-51
2023/12/07 12:05:19;;;;;;;28.03;21.90;;;;;;;;;;4966885;28;20517;-51
2023/12/07 12:07:45;;;;;;;28.73;22.07;;;;;;;;;;4963407;28;20842;-52
2023/12/07 12:10:12;;;;;;;29.20;21.37;;;;;;;;;;4965475;28;20434;-51
2023/12/07 12:12:40;;;;;;;31.23;22.60;;;;;;;;;;4963147;28;20228;-51
2023/12/07 12:15:06;;;;;;;26.67;20.87;;;;;;;;;;4966488;28;20805;-49
2023/12/07 12:17:32;;;;;;;28.93;21.57;;;;;;;;;;4962952;28;20445;-49
2023/12/07 12:19:58;;;;;;;30.40;23.13;;;;;;;;;;4961326;28;20848;-50
2023/12/07 12:22:25;;;;;;;26.37;20.90;;;;;;;;;;4964506;28;20282;-49
2023/12/07 12:24:52;;;;;;;28.13;21.40;;;;;;;;;;4964322;28;20451;-49
2023/12/07 12:27:18;;;;;;;28.00;22.60;;;;;;;;;;4964178;28;20486;-49
2023/12/07 12:29:44;;;;;;;27.70;21.87;;;;;;;;;;4970691;28;20469;-49
2023/12/07 12:32:10;;;;;;;26.97;20.67;;;;;;;;;;4982421;28;20855;-49
2023/12/07 12:34:37;;;;;;;31.83;22.70;;;;;;;;;;4983706;28;20440;-49
2023/12/07 12:37:05;;;;;;;34.27;23.27;;;;;;;;;;4982028;28;20213;-51
2023/12/07 12:39:32;;;;;;;30.67;22.83;;;;;;;;;;4980243;28;20440;-49
2023/12/07 12:41:59;;;;;;;30.23;22.37;;;;;;;;;;4985434;28;20446;-50
2023/12/07 12:44:25;;;;;;;31.93;23.37;;;;;;;;;;4982451;28;20930;-50
2023/12/07 12:46:51;;;;;;;30.50;22.73;;;;;;;;;;4982014;28;20450;-50
2023/12/07 12:49:17;;;;;;;31.20;22.23;;;;;;;;;;4983508;28;20485;-51
2023/12/07 12:51:44;;;;;;;36.60;24.00;;;;;;;;;;4982061;28;20444;-50
2023/12/07 12:54:11;;;;;;;31.10;23.03;;;;;;;;;;4985387;28;20669;-50
2023/12/07 12:56:38;;;;;;;36.50;23.30;;;;;;;;;;4981816;28;20549;-50
2023/12/07 12:59:04;;;;;;;38.03;23.13;;;;;;;;;;4982709;28;20939;-51
2023/12/07 13:01:31;;;;;;;31.93;23.67;;;;;;;;;;4981452;28;20450;-50
2023/12/07 13:03:57;;;;;;;32.77;23.43;;;;;;;;;;4985227;28;20452;-50
2023/12/07 13:06:24;;;;;;;34.93;24.47;;;;;;;;;;4983432;28;20454;-50
2023/12/07 13:08:51;;;;;;;36.10;24.70;;;;;;;;;;4981557;28;20477;-49
2023/12/07 13:11:17;;;;;;;37.00;24.83;;;;;;;;;;4981585;28;20457;-51
2023/12/07 13:13:45;;;;;;;37.50;25.47;;;;;;;;;;4981383;28;20449;-49
2023/12/07 13:16:14;;;;;;;35.07;25.90;;;;;;;;;;4981645;28;20529;-49
2023/12/07 13:18:40;;;;;;;32.57;22.73;;;;;;;;;;4982941;28;20441;-47
2023/12/07 13:21:06;;;;;;;39.53;25.57;;;;;;;;;;4982964;28;20517;-48
2023/12/07 13:23:32;;;;;;;30.20;22.27;;;;;;;;;;4981031;28;20453;-48
2023/12/07 13:25:58;;;;;;;36.33;24.53;;;;;;;;;;4982957;28;20856;-48
2023/12/07 13:28:25;;;;;;;34.27;23.60;;;;;;;;;;4981058;28;20239;-51
2023/12/07 13:30:53;;;;;;;32.47;22.17;;;;;;;;;;4984457;28;20230;-48
2023/12/07 13:33:19;;;;;;;36.10;22.17;;;;;;;;;;4982766;28;20476;-47
2023/12/07 13:35:45;;;;;;;26.63;20.37;;;;;;;;;;4978760;28;20434;-49
2023/12/07 13:38:12;;;;;;;29.00;20.77;;;;;;;;;;4979575;28;20536;-49
2023/12/07 13:40:37;;;;;;;28.77;20.37;;;;;;;;;;4982331;28;20799;-51
2023/12/07 13:43:03;;;;;;;28.00;18.63;;;;;;;;;;4982573;28;20441;-50
2023/12/07 13:45:29;;;;;;;28.50;20.03;;;;;;;;;;4979300;28;20194;-50
2023/12/07 13:47:58;;;;;;;28.50;20.17;;;;;;;;;;4984464;28;20559;-50
2023/12/07 13:50:24;;;;;;;28.97;19.80;;;;;;;;;;4983810;28;20237;-50
2023/12/07 13:52:50;;;;;;;24.70;18.50;;;;;;;;;;4980864;28;20480;-50
2023/12/07 13:55:16;;;;;;;24.53;18.17;;;;;;;;;;4980334;28;20464;-50
2023/12/07 13:57:42;;;;;;;27.97;18.50;;;;;;;;;;4980787;28;20680;-50
2023/12/07 14:00:12;;;;;;;29.03;18.80;;;;;;;;;;4982266;28;20248;-47
2023/12/07 14:02:38;;;;;;;23.97;17.93;;;;;;;;;;4982143;28;20237;-48
2023/12/07 14:05:06;;;;;;;28.10;18.97;;;;;;;;;;4983933;28;20426;-48
2023/12/07 14:07:32;;;;;;;27.90;19.17;;;;;;;;;;4979984;28;20460;-50
2023/12/07 14:09:58;;;;;;;25.57;17.97;;;;;;;;;;4978775;28;20441;-50
2023/12/07 14:12:24;;;;;;;25.50;18.03;;;;;;;;;;4981794;28;20453;-50
2023/12/07 14:14:50;;;;;;;24.20;17.73;;;;;;;;;;4980225;28;20281;-50